Currently 64°F in Riverside (Presidential Park), California, USA
64°F
64°F / 63°F
2 mph SW
0.00"
Sunday, June 16, 2019 8:46 AM PDT

Riverside (Presidential Park), California Weather Summary
Last 36 Hours

Temperature Winds Hourly Humidity Dewpoint
Time Report Norm Report Norm Max Gusts Precip. Rpt. Norm Rpt. Norm Pressure
1Sun 08:46 AM  63.7°F  69°F  2 mph SW  2 mph  3 mph  0.00"  82%  65%  58°F  56°F  29.87"
Sun 08:00 AM  63.1°F  66°F  1 mph NW  1 mph  5 mph  0.00"  83%  71%  58°F  56°F  29.87"
Sun 07:00 AM  63.0°F  63°F  4 mph W  1 mph  6 mph  0.00"  83%  76%  58°F  55°F  29.85"
Sun 06:00 AM  63.1°F  62°F  2 mph W  1 mph  5 mph  0.00"  83%  77%  58°F  54°F  29.85"
Sun 05:00 AM  63.0°F  62°F  3 mph NW  1 mph  5 mph  0.00"  83%  76%  58°F  54°F  29.85"
Sun 04:00 AM  63.3°F  63°F  2 mph NW  1 mph  6 mph  0.00"  83%  75%  58°F  54°F  29.85"
Sun 03:00 AM  63.1°F  63°F  2 mph NW  1 mph  6 mph  0.00"  82%  73%  57°F  54°F  29.86"
Sun 02:00 AM  63.1°F  64°F  3 mph W  1 mph  6 mph  0.00"  83%  71%  58°F  54°F  29.87"
3Sun 01:26 AM  62.7°F  65°F  4 mph W  2 mph  5 mph  ----  83%  70%  57°F  54°F  29.88"
Sun 01:00 AM  63.0°F  65°F  4 mph W  2 mph  5 mph  0.00"  83%  69%  57°F  54°F  29.88"
2Sun 12:02 AM  63.8°F  67°F  3 mph NW  2 mph  6 mph  ----  81%  66%  58°F  55°F  29.89"
Sun 12:00 AM  63.6°F  67°F  3 mph NW  2 mph  5 mph  0.00"  81%  66%  58°F  55°F  29.89"
Sat 11:00 PM  64.6°F  68°F  3 mph W  3 mph  8 mph  0.00"  80%  63%  58°F  55°F  29.90"
Sat 10:00 PM  66.1°F  70°F  5 mph W  3 mph  8 mph  0.00"  76%  59%  58°F  55°F  29.90"
Sat 09:00 PM  68.8°F  73°F  3 mph W  4 mph  9 mph  0.00"  69%  53%  58°F  54°F  29.88"
Sat 08:00 PM  71.6°F  76°F  4 mph W  5 mph  12 mph  0.00"  63%  47%  58°F  54°F  29.86"
Sat 07:00 PM  75.1°F  79°F  7 mph SW  7 mph  15 mph  0.00"  55%  41%  57°F  53°F  29.85"
Sat 06:00 PM  77.7°F  82°F  8 mph SW  8 mph  17 mph  0.00"  51%  37%  58°F  52°F  29.83"
Sat 05:00 PM  79.5°F  84°F  8 mph SW  8 mph  14 mph  0.00"  48%  35%  57°F  52°F  29.84"
Sat 04:00 PM  79.8°F  85°F  6 mph W  8 mph  13 mph  0.00"  49%  33%  58°F  52°F  29.85"
Sat 03:00 PM  77.4°F  85°F  7 mph SW  8 mph  13 mph  0.00"  51%  33%  57°F  52°F  29.86"
Sat 02:00 PM  75.5°F  85°F  6 mph W  6 mph  12 mph  0.00"  56%  34%  58°F  53°F  29.88"
Sat 01:00 PM  71.1°F  83°F  3 mph W  5 mph  9 mph  0.00"  64%  38%  58°F  54°F  29.90"
Sat 12:00 PM  66.9°F  80°F  2 mph S  4 mph  6 mph  0.00"  72%  42%  57°F  55°F  29.92"
Sat 11:00 AM  64.5°F  77°F  3 mph SW  4 mph  8 mph  0.00"  79%  48%  57°F  55°F  29.93"
Sat 10:00 AM  63.0°F  73°F  2 mph S  3 mph  4 mph  0.00"  82%  56%  57°F  56°F  29.93"
Sat 09:00 AM  62.5°F  69°F  1 mph SE  2 mph  4 mph  0.00"  83%  64%  57°F  56°F  29.93"
Sat 08:00 AM  62.3°F  66°F  1 mph NW  2 mph  6 mph  0.00"  83%  71%  57°F  56°F  29.93"
Sat 07:00 AM  62.1°F  62°F  2 mph W  1 mph  5 mph  0.00"  83%  77%  57°F  55°F  29.93"
Sat 06:00 AM  62.1°F  61°F  calm  1 mph  6 mph  0.00"  82%  77%  57°F  54°F  29.91"
Sat 05:00 AM  62.1°F  62°F  1 mph SW  1 mph  6 mph  0.00"  83%  76%  57°F  54°F  29.90"
Sat 04:00 AM  62.1°F  62°F  2 mph SW  1 mph  6 mph  0.00"  83%  75%  57°F  54°F  29.90"
Sat 03:00 AM  62.1°F  63°F  4 mph W  1 mph  7 mph  0.00"  82%  74%  56°F  54°F  29.89"
Sat 02:00 AM  61.9°F  64°F  3 mph W  1 mph  6 mph  0.00"  81%  72%  56°F  54°F  29.90"
Sat 01:00 AM  62.7°F  65°F  3 mph SW  2 mph  7 mph  0.00"  80%  70%  56°F  55°F  29.90"
Sat 12:00 AM  63.3°F  66°F  1 mph W  2 mph  7 mph  0.00"  77%  67%  56°F  55°F  29.91"
Fri 11:00 PM  64.3°F  68°F  4 mph NW  3 mph  6 mph  0.00"  75%  64%  56°F  55°F  29.91"
Fri 10:00 PM  65.0°F  70°F  4 mph SW  3 mph  8 mph  0.00"  73%  60%  56°F  55°F  29.91"
Fri 09:00 PM  67.0°F  72°F  5 mph W  4 mph  9 mph  0.00"  69%  54%  56°F  54°F  29.89"

  1. Current weather data. No green row appears if the current weather data is also the high or low for the current day.
  2. High temperature for the current day.
  3. Low temperature for the current day.

The Riverside (Presidential Park), California weather pages are a service of WeatherCurrents.
Copyright ©2019  WeatherCurrents. All rights reserved. - Submit questions and comments - Privacy Policy

This page automatically refreshes every 10 minutes.